Oba, Canada
Current Conditions -  °F | °C
As of 2:00 PM on Sunday 21 Dec 2014 (Local Time) from CYYU Reporting Station
Overcast Overcast  
Wind Chill: 14°   Ceiling: 1400
Heat Index: 23°   Visibility: 15mi
Dew Point: 21°   Wind: 8mph
Humidity: 93%   Direction: 210°SSW
Pressure: 30.13"   Gusts: NA
Location:  49.07°N, 84.1°W
Report Text: CYYU 211900Z 21007KT 15SM OVC014 M05/M06 A3013 RMK SC8 BLN ESTD CIG RAG SLP221
Loading
Personal Weather Stations






























Interactive Weather Map New forecast layout! Learn more

10-Day Weather Forecast

Advertisements
Track Severe Weather on mobile